sensor_id;sensor_type;location;lat;lon;timestamp;P1;durP1;ratioP1;P2;durP2;ratioP2
39728;SDS011;25402;42.004;23.088;2023-07-13T00:01:48;14.07;;;6.55;;
39728;SDS011;25402;42.004;23.088;2023-07-13T00:04:17;12.38;;;6.97;;
39728;SDS011;25402;42.004;23.088;2023-07-13T00:06:46;17.52;;;7.85;;
39728;SDS011;25402;42.004;23.088;2023-07-13T00:09:13;12.45;;;7.75;;
39728;SDS011;25402;42.004;23.088;2023-07-13T00:11:41;13.43;;;7.72;;
39728;SDS011;25402;42.004;23.088;2023-07-13T00:14:09;9.95;;;6.95;;
39728;SDS011;25402;42.004;23.088;2023-07-13T00:16:37;12.80;;;7.25;;
39728;SDS011;25402;42.004;23.088;2023-07-13T00:19:08;13.27;;;8.20;;
39728;SDS011;25402;42.004;23.088;2023-07-13T00:21:38;14.32;;;8.25;;
39728;SDS011;25402;42.004;23.088;2023-07-13T00:24:05;11.52;;;8.55;;
39728;SDS011;25402;42.004;23.088;2023-07-13T00:26:32;14.20;;;9.63;;
39728;SDS011;25402;42.004;23.088;2023-07-13T00:28:59;12.88;;;8.65;;
39728;SDS011;25402;42.004;23.088;2023-07-13T00:31:26;18.35;;;8.73;;
39728;SDS011;25402;42.004;23.088;2023-07-13T00:33:53;16.25;;;7.65;;
39728;SDS011;25402;42.004;23.088;2023-07-13T00:36:20;13.45;;;7.40;;
39728;SDS011;25402;42.004;23.088;2023-07-13T00:38:51;17.35;;;7.97;;
39728;SDS011;25402;42.004;23.088;2023-07-13T00:41:18;14.82;;;9.00;;
39728;SDS011;25402;42.004;23.088;2023-07-13T00:43:45;14.18;;;7.60;;
39728;SDS011;25402;42.004;23.088;2023-07-13T00:46:17;12.18;;;7.18;;
39728;SDS011;25402;42.004;23.088;2023-07-13T00:48:49;14.90;;;6.85;;
39728;SDS011;25402;42.004;23.088;2023-07-13T00:51:19;13.07;;;6.75;;
39728;SDS011;25402;42.004;23.088;2023-07-13T00:53:52;11.35;;;7.40;;
39728;SDS011;25402;42.004;23.088;2023-07-13T00:56:22;10.70;;;7.55;;
39728;SDS011;25402;42.004;23.088;2023-07-13T00:58:50;14.43;;;7.10;;
39728;SDS011;25402;42.004;23.088;2023-07-13T01:01:17;13.30;;;6.68;;
39728;SDS011;25402;42.004;23.088;2023-07-13T01:03:43;13.27;;;7.18;;
39728;SDS011;25402;42.004;23.088;2023-07-13T01:06:11;15.90;;;7.35;;
39728;SDS011;25402;42.004;23.088;2023-07-13T01:08:39;10.68;;;6.95;;
39728;SDS011;25402;42.004;23.088;2023-07-13T01:11:07;12.25;;;7.07;;
39728;SDS011;25402;42.004;23.088;2023-07-13T01:13:34;16.92;;;8.13;;
39728;SDS011;25402;42.004;23.088;2023-07-13T01:16:02;12.57;;;8.68;;
39728;SDS011;25402;42.004;23.088;2023-07-13T01:18:33;14.80;;;7.57;;
39728;SDS011;25402;42.004;23.088;2023-07-13T01:21:02;13.35;;;7.80;;
39728;SDS011;25402;42.004;23.088;2023-07-13T01:23:31;14.73;;;10.00;;
39728;SDS011;25402;42.004;23.088;2023-07-13T01:25:59;14.45;;;8.13;;
39728;SDS011;25402;42.004;23.088;2023-07-13T01:28:27;11.40;;;7.35;;
39728;SDS011;25402;42.004;23.088;2023-07-13T01:30:56;14.45;;;8.30;;
39728;SDS011;25402;42.004;23.088;2023-07-13T01:33:24;17.48;;;8.63;;
39728;SDS011;25402;42.004;23.088;2023-07-13T01:35:52;16.27;;;8.15;;
39728;SDS011;25402;42.004;23.088;2023-07-13T01:38:22;13.43;;;8.35;;
39728;SDS011;25402;42.004;23.088;2023-07-13T01:40:49;16.02;;;8.50;;
39728;SDS011;25402;42.004;23.088;2023-07-13T01:43:17;11.38;;;7.95;;
39728;SDS011;25402;42.004;23.088;2023-07-13T01:45:44;14.38;;;8.23;;
39728;SDS011;25402;42.004;23.088;2023-07-13T01:48:11;15.32;;;7.00;;
39728;SDS011;25402;42.004;23.088;2023-07-13T01:50:39;12.02;;;6.95;;
39728;SDS011;25402;42.004;23.088;2023-07-13T01:53:06;12.63;;;7.40;;
39728;SDS011;25402;42.004;23.088;2023-07-13T01:55:35;15.15;;;7.80;;
39728;SDS011;25402;42.004;23.088;2023-07-13T01:58:02;15.07;;;7.45;;
39728;SDS011;25402;42.004;23.088;2023-07-13T02:00:29;15.93;;;8.40;;
39728;SDS011;25402;42.004;23.088;2023-07-13T02:02:56;12.20;;;7.60;;
39728;SDS011;25402;42.004;23.088;2023-07-13T02:05:23;15.68;;;8.05;;
39728;SDS011;25402;42.004;23.088;2023-07-13T02:07:50;14.38;;;9.23;;
39728;SDS011;25402;42.004;23.088;2023-07-13T02:10:18;17.98;;;8.00;;
39728;SDS011;25402;42.004;23.088;2023-07-13T02:12:48;13.32;;;8.40;;
39728;SDS011;25402;42.004;23.088;2023-07-13T02:15:16;12.48;;;7.82;;
39728;SDS011;25402;42.004;23.088;2023-07-13T02:17:43;16.58;;;8.00;;
39728;SDS011;25402;42.004;23.088;2023-07-13T02:20:10;11.63;;;7.38;;
39728;SDS011;25402;42.004;23.088;2023-07-13T02:22:37;19.58;;;8.30;;
39728;SDS011;25402;42.004;23.088;2023-07-13T02:25:04;17.23;;;7.90;;
39728;SDS011;25402;42.004;23.088;2023-07-13T02:27:32;39.05;;;9.70;;
39728;SDS011;25402;42.004;23.088;2023-07-13T02:30:00;15.90;;;9.48;;
39728;SDS011;25402;42.004;23.088;2023-07-13T02:32:27;15.32;;;9.27;;
39728;SDS011;25402;42.004;23.088;2023-07-13T02:34:54;19.73;;;8.45;;
39728;SDS011;25402;42.004;23.088;2023-07-13T02:37:21;22.88;;;9.43;;
39728;SDS011;25402;42.004;23.088;2023-07-13T02:39:48;21.45;;;9.18;;
39728;SDS011;25402;42.004;23.088;2023-07-13T02:42:15;26.02;;;9.52;;
39728;SDS011;25402;42.004;23.088;2023-07-13T02:44:42;22.95;;;10.48;;
39728;SDS011;25402;42.004;23.088;2023-07-13T02:47:10;18.92;;;10.18;;
39728;SDS011;25402;42.004;23.088;2023-07-13T02:49:38;19.15;;;9.05;;
39728;SDS011;25402;42.004;23.088;2023-07-13T02:52:05;23.48;;;9.93;;
39728;SDS011;25402;42.004;23.088;2023-07-13T02:54:32;26.00;;;13.50;;
39728;SDS011;25402;42.004;23.088;2023-07-13T02:56:59;29.20;;;11.13;;
39728;SDS011;25402;42.004;23.088;2023-07-13T02:59:26;20.92;;;9.27;;
39728;SDS011;25402;42.004;23.088;2023-07-13T03:01:53;18.25;;;8.75;;
39728;SDS011;25402;42.004;23.088;2023-07-13T03:04:21;15.18;;;8.60;;
39728;SDS011;25402;42.004;23.088;2023-07-13T03:06:48;17.15;;;8.65;;
39728;SDS011;25402;42.004;23.088;2023-07-13T03:09:15;18.83;;;9.63;;
39728;SDS011;25402;42.004;23.088;2023-07-13T03:11:41;16.50;;;10.73;;
39728;SDS011;25402;42.004;23.088;2023-07-13T03:14:08;21.30;;;10.73;;
39728;SDS011;25402;42.004;23.088;2023-07-13T03:16:35;192.63;;;17.90;;
39728;SDS011;25402;42.004;23.088;2023-07-13T03:19:02;73.00;;;12.60;;
39728;SDS011;25402;42.004;23.088;2023-07-13T03:21:30;47.80;;;12.43;;
39728;SDS011;25402;42.004;23.088;2023-07-13T03:23:57;30.65;;;9.73;;
39728;SDS011;25402;42.004;23.088;2023-07-13T03:26:24;28.52;;;9.70;;
39728;SDS011;25402;42.004;23.088;2023-07-13T03:28:51;26.70;;;8.90;;
39728;SDS011;25402;42.004;23.088;2023-07-13T03:31:19;19.45;;;8.13;;
39728;SDS011;25402;42.004;23.088;2023-07-13T03:33:53;16.27;;;7.75;;
39728;SDS011;25402;42.004;23.088;2023-07-13T03:36:22;20.27;;;8.52;;
39728;SDS011;25402;42.004;23.088;2023-07-13T03:38:52;19.33;;;9.45;;
39728;SDS011;25402;42.004;23.088;2023-07-13T03:41:22;14.95;;;8.32;;
39728;SDS011;25402;42.004;23.088;2023-07-13T03:43:49;19.38;;;9.15;;
39728;SDS011;25402;42.004;23.088;2023-07-13T03:46:17;32.03;;;8.82;;
39728;SDS011;25402;42.004;23.088;2023-07-13T03:48:45;15.20;;;7.82;;
39728;SDS011;25402;42.004;23.088;2023-07-13T03:51:14;11.40;;;5.57;;
39728;SDS011;25402;42.004;23.088;2023-07-13T03:53:43;11.93;;;7.40;;
39728;SDS011;25402;42.004;23.088;2023-07-13T03:56:12;15.38;;;7.53;;
39728;SDS011;25402;42.004;23.088;2023-07-13T03:58:40;13.55;;;7.10;;
39728;SDS011;25402;42.004;23.088;2023-07-13T04:01:09;15.68;;;7.57;;
39728;SDS011;25402;42.004;23.088;2023-07-13T04:03:37;10.65;;;7.25;;
39728;SDS011;25402;42.004;23.088;2023-07-13T04:06:07;13.93;;;7.93;;
39728;SDS011;25402;42.004;23.088;2023-07-13T04:08:40;17.67;;;6.90;;
39728;SDS011;25402;42.004;23.088;2023-07-13T04:11:07;16.98;;;7.95;;
39728;SDS011;25402;42.004;23.088;2023-07-13T04:13:35;15.57;;;7.05;;
39728;SDS011;25402;42.004;23.088;2023-07-13T04:16:02;14.15;;;6.85;;
39728;SDS011;25402;42.004;23.088;2023-07-13T04:18:29;14.38;;;6.70;;
39728;SDS011;25402;42.004;23.088;2023-07-13T04:20:56;14.95;;;6.80;;
39728;SDS011;25402;42.004;23.088;2023-07-13T04:23:23;23.30;;;7.45;;
39728;SDS011;25402;42.004;23.088;2023-07-13T04:25:51;13.95;;;7.22;;
39728;SDS011;25402;42.004;23.088;2023-07-13T04:28:19;16.05;;;7.13;;
39728;SDS011;25402;42.004;23.088;2023-07-13T04:30:48;16.75;;;7.82;;
39728;SDS011;25402;42.004;23.088;2023-07-13T04:33:15;29.58;;;9.48;;
39728;SDS011;25402;42.004;23.088;2023-07-13T04:35:43;19.70;;;8.43;;
39728;SDS011;25402;42.004;23.088;2023-07-13T04:38:11;19.73;;;9.07;;
39728;SDS011;25402;42.004;23.088;2023-07-13T04:40:40;29.35;;;10.45;;
39728;SDS011;25402;42.004;23.088;2023-07-13T04:43:09;23.13;;;9.02;;
39728;SDS011;25402;42.004;23.088;2023-07-13T04:45:36;27.30;;;9.73;;
39728;SDS011;25402;42.004;23.088;2023-07-13T04:48:05;24.00;;;10.05;;
39728;SDS011;25402;42.004;23.088;2023-07-13T04:50:32;22.70;;;9.40;;
39728;SDS011;25402;42.004;23.088;2023-07-13T04:53:02;34.17;;;8.60;;
39728;SDS011;25402;42.004;23.088;2023-07-13T04:55:30;61.33;;;10.70;;
39728;SDS011;25402;42.004;23.088;2023-07-13T04:57:57;21.73;;;7.78;;
39728;SDS011;25402;42.004;23.088;2023-07-13T05:00:25;23.25;;;7.45;;
39728;SDS011;25402;42.004;23.088;2023-07-13T05:02:53;27.95;;;8.45;;
39728;SDS011;25402;42.004;23.088;2023-07-13T05:05:23;19.73;;;7.68;;
39728;SDS011;25402;42.004;23.088;2023-07-13T05:07:50;23.85;;;7.40;;
39728;SDS011;25402;42.004;23.088;2023-07-13T05:10:17;19.90;;;6.78;;
39728;SDS011;25402;42.004;23.088;2023-07-13T05:12:45;29.83;;;7.45;;
39728;SDS011;25402;42.004;23.088;2023-07-13T05:15:11;19.40;;;6.32;;
39728;SDS011;25402;42.004;23.088;2023-07-13T05:17:38;20.25;;;7.43;;
39728;SDS011;25402;42.004;23.088;2023-07-13T05:20:08;15.55;;;7.22;;
39728;SDS011;25402;42.004;23.088;2023-07-13T05:22:43;12.75;;;6.32;;
39728;SDS011;25402;42.004;23.088;2023-07-13T05:25:12;13.35;;;6.53;;
39728;SDS011;25402;42.004;23.088;2023-07-13T05:27:39;171.13;;;15.88;;
39728;SDS011;25402;42.004;23.088;2023-07-13T05:30:06;50.70;;;8.23;;
39728;SDS011;25402;42.004;23.088;2023-07-13T05:32:37;21.20;;;6.43;;
39728;SDS011;25402;42.004;23.088;2023-07-13T05:35:05;19.20;;;7.25;;
39728;SDS011;25402;42.004;23.088;2023-07-13T05:37:33;15.27;;;7.18;;
39728;SDS011;25402;42.004;23.088;2023-07-13T05:40:04;11.75;;;6.90;;
39728;SDS011;25402;42.004;23.088;2023-07-13T05:42:33;17.55;;;7.72;;
39728;SDS011;25402;42.004;23.088;2023-07-13T05:45:01;17.20;;;7.90;;
39728;SDS011;25402;42.004;23.088;2023-07-13T05:47:29;13.75;;;7.13;;
39728;SDS011;25402;42.004;23.088;2023-07-13T05:49:56;18.58;;;7.32;;
39728;SDS011;25402;42.004;23.088;2023-07-13T05:52:24;24.13;;;7.47;;
39728;SDS011;25402;42.004;23.088;2023-07-13T05:54:50;18.73;;;6.78;;
39728;SDS011;25402;42.004;23.088;2023-07-13T05:57:19;22.10;;;8.02;;
39728;SDS011;25402;42.004;23.088;2023-07-13T05:59:48;23.33;;;6.97;;
39728;SDS011;25402;42.004;23.088;2023-07-13T06:02:15;12.77;;;7.38;;
39728;SDS011;25402;42.004;23.088;2023-07-13T06:04:41;19.85;;;7.72;;
39728;SDS011;25402;42.004;23.088;2023-07-13T06:07:08;72.57;;;9.63;;
39728;SDS011;25402;42.004;23.088;2023-07-13T06:09:35;22.42;;;7.68;;
39728;SDS011;25402;42.004;23.088;2023-07-13T06:12:03;19.08;;;8.07;;
39728;SDS011;25402;42.004;23.088;2023-07-13T06:14:35;11.40;;;7.05;;
39728;SDS011;25402;42.004;23.088;2023-07-13T06:17:02;17.33;;;7.13;;
39728;SDS011;25402;42.004;23.088;2023-07-13T06:19:31;22.98;;;7.53;;
39728;SDS011;25402;42.004;23.088;2023-07-13T06:21:58;15.45;;;7.00;;
39728;SDS011;25402;42.004;23.088;2023-07-13T06:24:26;16.63;;;7.20;;
39728;SDS011;25402;42.004;23.088;2023-07-13T06:26:53;19.05;;;7.90;;
39728;SDS011;25402;42.004;23.088;2023-07-13T06:29:20;11.82;;;6.93;;
39728;SDS011;25402;42.004;23.088;2023-07-13T06:31:48;11.50;;;7.70;;
39728;SDS011;25402;42.004;23.088;2023-07-13T06:34:15;13.90;;;7.22;;
39728;SDS011;25402;42.004;23.088;2023-07-13T06:36:42;16.15;;;7.50;;
39728;SDS011;25402;42.004;23.088;2023-07-13T06:39:09;16.75;;;7.95;;
39728;SDS011;25402;42.004;23.088;2023-07-13T06:41:36;12.93;;;7.63;;
39728;SDS011;25402;42.004;23.088;2023-07-13T06:44:04;14.15;;;7.40;;
39728;SDS011;25402;42.004;23.088;2023-07-13T06:46:31;17.63;;;8.40;;
39728;SDS011;25402;42.004;23.088;2023-07-13T06:48:59;11.35;;;7.95;;
39728;SDS011;25402;42.004;23.088;2023-07-13T06:51:26;16.20;;;7.55;;
39728;SDS011;25402;42.004;23.088;2023-07-13T06:53:53;18.63;;;7.53;;
39728;SDS011;25402;42.004;23.088;2023-07-13T06:58:50;41.65;;;9.50;;
39728;SDS011;25402;42.004;23.088;2023-07-13T07:01:17;16.73;;;7.32;;
39728;SDS011;25402;42.004;23.088;2023-07-13T07:03:44;25.23;;;14.50;;
39728;SDS011;25402;42.004;23.088;2023-07-13T07:06:15;14.40;;;8.90;;
39728;SDS011;25402;42.004;23.088;2023-07-13T07:08:43;20.27;;;12.38;;
39728;SDS011;25402;42.004;23.088;2023-07-13T07:11:11;29.65;;;14.50;;
39728;SDS011;25402;42.004;23.088;2023-07-13T07:13:39;21.77;;;12.70;;
39728;SDS011;25402;42.004;23.088;2023-07-13T07:16:06;20.02;;;11.23;;
39728;SDS011;25402;42.004;23.088;2023-07-13T07:18:33;14.82;;;7.80;;
39728;SDS011;25402;42.004;23.088;2023-07-13T07:21:01;17.38;;;8.52;;
39728;SDS011;25402;42.004;23.088;2023-07-13T07:23:30;14.95;;;7.75;;
39728;SDS011;25402;42.004;23.088;2023-07-13T07:25:56;19.08;;;8.15;;
39728;SDS011;25402;42.004;23.088;2023-07-13T07:28:24;15.27;;;7.90;;
39728;SDS011;25402;42.004;23.088;2023-07-13T07:30:53;19.10;;;7.68;;
39728;SDS011;25402;42.004;23.088;2023-07-13T07:33:21;15.15;;;8.13;;
39728;SDS011;25402;42.004;23.088;2023-07-13T07:35:48;11.55;;;7.38;;
39728;SDS011;25402;42.004;23.088;2023-07-13T07:38:15;22.08;;;7.60;;
39728;SDS011;25402;42.004;23.088;2023-07-13T07:40:44;19.30;;;8.07;;
39728;SDS011;25402;42.004;23.088;2023-07-13T07:43:11;12.20;;;7.78;;
39728;SDS011;25402;42.004;23.088;2023-07-13T07:45:39;17.02;;;8.13;;
39728;SDS011;25402;42.004;23.088;2023-07-13T07:48:06;14.32;;;8.48;;
39728;SDS011;25402;42.004;23.088;2023-07-13T07:50:34;14.73;;;8.18;;
39728;SDS011;25402;42.004;23.088;2023-07-13T07:53:01;13.57;;;7.78;;
39728;SDS011;25402;42.004;23.088;2023-07-13T07:55:28;20.25;;;8.18;;
39728;SDS011;25402;42.004;23.088;2023-07-13T07:57:57;16.20;;;8.88;;
39728;SDS011;25402;42.004;23.088;2023-07-13T08:00:24;16.05;;;8.43;;
39728;SDS011;25402;42.004;23.088;2023-07-13T08:02:51;15.63;;;8.77;;
39728;SDS011;25402;42.004;23.088;2023-07-13T08:05:18;13.98;;;8.18;;
39728;SDS011;25402;42.004;23.088;2023-07-13T08:07:45;17.67;;;8.40;;
39728;SDS011;25402;42.004;23.088;2023-07-13T08:10:12;13.73;;;7.72;;
39728;SDS011;25402;42.004;23.088;2023-07-13T08:12:40;46.50;;;9.27;;
39728;SDS011;25402;42.004;23.088;2023-07-13T08:15:10;13.82;;;7.68;;
39728;SDS011;25402;42.004;23.088;2023-07-13T08:17:39;16.27;;;6.78;;
39728;SDS011;25402;42.004;23.088;2023-07-13T08:20:06;10.65;;;6.45;;
39728;SDS011;25402;42.004;23.088;2023-07-13T08:22:34;22.85;;;7.72;;
39728;SDS011;25402;42.004;23.088;2023-07-13T08:25:01;14.82;;;6.47;;
39728;SDS011;25402;42.004;23.088;2023-07-13T08:27:28;18.10;;;6.57;;
39728;SDS011;25402;42.004;23.088;2023-07-13T08:29:55;12.32;;;6.68;;
39728;SDS011;25402;42.004;23.088;2023-07-13T08:32:24;13.52;;;7.25;;
39728;SDS011;25402;42.004;23.088;2023-07-13T08:34:51;18.33;;;7.35;;
39728;SDS011;25402;42.004;23.088;2023-07-13T08:37:18;109.47;;;11.15;;
39728;SDS011;25402;42.004;23.088;2023-07-13T08:39:45;28.08;;;7.78;;
39728;SDS011;25402;42.004;23.088;2023-07-13T08:42:14;11.52;;;6.72;;
39728;SDS011;25402;42.004;23.088;2023-07-13T08:44:50;11.77;;;6.88;;
39728;SDS011;25402;42.004;23.088;2023-07-13T08:47:25;13.85;;;7.45;;
39728;SDS011;25402;42.004;23.088;2023-07-13T08:49:55;11.65;;;7.32;;
39728;SDS011;25402;42.004;23.088;2023-07-13T08:52:26;34.58;;;7.80;;
39728;SDS011;25402;42.004;23.088;2023-07-13T08:55:01;12.43;;;5.93;;
39728;SDS011;25402;42.004;23.088;2023-07-13T08:57:35;10.45;;;6.60;;
39728;SDS011;25402;42.004;23.088;2023-07-13T09:00:02;10.25;;;6.68;;
39728;SDS011;25402;42.004;23.088;2023-07-13T09:02:38;11.65;;;7.25;;
39728;SDS011;25402;42.004;23.088;2023-07-13T09:05:10;14.30;;;8.05;;
39728;SDS011;25402;42.004;23.088;2023-07-13T09:07:44;14.32;;;6.85;;
39728;SDS011;25402;42.004;23.088;2023-07-13T09:10:27;12.35;;;6.38;;
39728;SDS011;25402;42.004;23.088;2023-07-13T09:13:04;10.15;;;6.20;;
39728;SDS011;25402;42.004;23.088;2023-07-13T09:15:39;13.00;;;6.37;;
39728;SDS011;25402;42.004;23.088;2023-07-13T09:18:10;22.88;;;8.10;;
39728;SDS011;25402;42.004;23.088;2023-07-13T09:20:42;16.17;;;7.05;;
39728;SDS011;25402;42.004;23.088;2023-07-13T09:23:14;12.13;;;9.02;;
39728;SDS011;25402;42.004;23.088;2023-07-13T09:25:43;15.80;;;6.30;;
39728;SDS011;25402;42.004;23.088;2023-07-13T09:28:14;11.27;;;6.47;;
39728;SDS011;25402;42.004;23.088;2023-07-13T09:30:45;11.43;;;6.50;;
39728;SDS011;25402;42.004;23.088;2023-07-13T09:33:19;11.38;;;6.47;;
39728;SDS011;25402;42.004;23.088;2023-07-13T09:35:47;26.10;;;9.82;;
39728;SDS011;25402;42.004;23.088;2023-07-13T09:38:15;12.48;;;7.88;;
39728;SDS011;25402;42.004;23.088;2023-07-13T09:40:48;9.10;;;6.72;;
39728;SDS011;25402;42.004;23.088;2023-07-13T09:43:34;7.47;;;5.70;;
39728;SDS011;25402;42.004;23.088;2023-07-13T09:46:01;11.73;;;6.20;;
39728;SDS011;25402;42.004;23.088;2023-07-13T09:48:35;12.38;;;5.78;;
39728;SDS011;25402;42.004;23.088;2023-07-13T09:51:07;16.67;;;5.70;;
39728;SDS011;25402;42.004;23.088;2023-07-13T09:53:41;11.00;;;5.72;;
39728;SDS011;25402;42.004;23.088;2023-07-13T09:56:18;13.00;;;6.57;;
39728;SDS011;25402;42.004;23.088;2023-07-13T09:58:46;11.05;;;5.80;;
39728;SDS011;25402;42.004;23.088;2023-07-13T10:01:13;10.38;;;5.88;;
39728;SDS011;25402;42.004;23.088;2023-07-13T10:03:51;11.18;;;6.15;;
39728;SDS011;25402;42.004;23.088;2023-07-13T10:06:22;11.95;;;6.43;;
39728;SDS011;25402;42.004;23.088;2023-07-13T10:11:19;16.23;;;6.07;;
39728;SDS011;25402;42.004;23.088;2023-07-13T10:13:48;13.80;;;6.13;;
39728;SDS011;25402;42.004;23.088;2023-07-13T10:16:19;14.82;;;5.32;;
39728;SDS011;25402;42.004;23.088;2023-07-13T10:18:48;10.85;;;4.90;;
39728;SDS011;25402;42.004;23.088;2023-07-13T10:21:18;43.58;;;6.22;;
39728;SDS011;25402;42.004;23.088;2023-07-13T10:23:48;11.90;;;4.68;;
39728;SDS011;25402;42.004;23.088;2023-07-13T10:26:21;12.10;;;5.30;;
39728;SDS011;25402;42.004;23.088;2023-07-13T10:28:52;9.27;;;5.20;;
39728;SDS011;25402;42.004;23.088;2023-07-13T10:31:22;13.98;;;5.13;;
39728;SDS011;25402;42.004;23.088;2023-07-13T10:33:51;6.25;;;4.30;;
39728;SDS011;25402;42.004;23.088;2023-07-13T10:36:29;6.03;;;4.40;;
39728;SDS011;25402;42.004;23.088;2023-07-13T10:39:01;6.25;;;4.05;;
39728;SDS011;25402;42.004;23.088;2023-07-13T10:41:32;11.93;;;4.53;;
39728;SDS011;25402;42.004;23.088;2023-07-13T10:44:04;8.20;;;4.78;;
39728;SDS011;25402;42.004;23.088;2023-07-13T10:46:43;11.00;;;5.00;;
39728;SDS011;25402;42.004;23.088;2023-07-13T10:49:13;21.70;;;5.40;;
39728;SDS011;25402;42.004;23.088;2023-07-13T10:51:42;11.35;;;4.93;;
39728;SDS011;25402;42.004;23.088;2023-07-13T10:54:16;9.00;;;5.50;;
39728;SDS011;25402;42.004;23.088;2023-07-13T10:56:48;6.75;;;4.45;;
39728;SDS011;25402;42.004;23.088;2023-07-13T10:59:17;11.20;;;4.72;;
39728;SDS011;25402;42.004;23.088;2023-07-13T11:01:53;15.13;;;5.13;;
39728;SDS011;25402;42.004;23.088;2023-07-13T11:04:24;7.95;;;5.15;;
39728;SDS011;25402;42.004;23.088;2023-07-13T11:06:53;26.08;;;5.82;;
39728;SDS011;25402;42.004;23.088;2023-07-13T11:09:32;13.23;;;4.90;;
39728;SDS011;25402;42.004;23.088;2023-07-13T11:12:08;7.40;;;4.50;;
39728;SDS011;25402;42.004;23.088;2023-07-13T11:15:06;11.32;;;4.68;;
39728;SDS011;25402;42.004;23.088;2023-07-13T11:17:45;5.30;;;4.35;;
39728;SDS011;25402;42.004;23.088;2023-07-13T11:20:21;10.63;;;4.50;;
39728;SDS011;25402;42.004;23.088;2023-07-13T11:22:51;11.68;;;4.53;;
39728;SDS011;25402;42.004;23.088;2023-07-13T11:25:27;10.77;;;4.97;;
39728;SDS011;25402;42.004;23.088;2023-07-13T11:28:16;17.10;;;4.97;;
39728;SDS011;25402;42.004;23.088;2023-07-13T11:30:48;8.27;;;4.80;;
39728;SDS011;25402;42.004;23.088;2023-07-13T11:33:17;7.50;;;4.75;;
39728;SDS011;25402;42.004;23.088;2023-07-13T11:35:57;18.05;;;5.00;;
39728;SDS011;25402;42.004;23.088;2023-07-13T11:38:31;12.52;;;4.93;;
39728;SDS011;25402;42.004;23.088;2023-07-13T11:41:03;12.77;;;4.38;;
39728;SDS011;25402;42.004;23.088;2023-07-13T11:43:32;6.95;;;4.63;;
39728;SDS011;25402;42.004;23.088;2023-07-13T11:46:11;13.38;;;4.50;;
39728;SDS011;25402;42.004;23.088;2023-07-13T11:48:40;7.30;;;4.38;;
39728;SDS011;25402;42.004;23.088;2023-07-13T11:51:13;13.07;;;4.28;;
39728;SDS011;25402;42.004;23.088;2023-07-13T11:53:47;11.75;;;4.57;;
39728;SDS011;25402;42.004;23.088;2023-07-13T11:56:21;11.77;;;4.80;;
39728;SDS011;25402;42.004;23.088;2023-07-13T11:58:50;11.43;;;4.60;;
39728;SDS011;25402;42.004;23.088;2023-07-13T12:01:20;8.15;;;4.63;;
39728;SDS011;25402;42.004;23.088;2023-07-13T12:03:49;8.65;;;4.78;;
39728;SDS011;25402;42.004;23.088;2023-07-13T12:06:23;18.63;;;13.95;;
39728;SDS011;25402;42.004;23.088;2023-07-13T12:08:55;14.38;;;7.65;;
39728;SDS011;25402;42.004;23.088;2023-07-13T12:11:24;28.48;;;13.85;;
39728;SDS011;25402;42.004;23.088;2023-07-13T12:13:51;18.85;;;8.30;;
39728;SDS011;25402;42.004;23.088;2023-07-13T12:16:22;20.58;;;5.80;;
39728;SDS011;25402;42.004;23.088;2023-07-13T12:18:55;13.73;;;4.57;;
39728;SDS011;25402;42.004;23.088;2023-07-13T12:21:26;7.60;;;4.45;;
39728;SDS011;25402;42.004;23.088;2023-07-13T12:23:57;10.18;;;5.72;;
39728;SDS011;25402;42.004;23.088;2023-07-13T12:26:27;16.35;;;4.50;;
39728;SDS011;25402;42.004;23.088;2023-07-13T12:28:55;9.70;;;4.63;;
39728;SDS011;25402;42.004;23.088;2023-07-13T12:31:24;12.25;;;4.75;;
39728;SDS011;25402;42.004;23.088;2023-07-13T12:33:56;13.63;;;5.10;;
39728;SDS011;25402;42.004;23.088;2023-07-13T12:36:26;14.25;;;4.90;;
39728;SDS011;25402;42.004;23.088;2023-07-13T12:38:58;9.85;;;5.15;;
39728;SDS011;25402;42.004;23.088;2023-07-13T12:41:30;15.13;;;4.82;;
39728;SDS011;25402;42.004;23.088;2023-07-13T12:43:58;12.73;;;5.03;;
39728;SDS011;25402;42.004;23.088;2023-07-13T12:46:26;13.55;;;5.05;;
39728;SDS011;25402;42.004;23.088;2023-07-13T12:48:54;12.52;;;4.90;;
39728;SDS011;25402;42.004;23.088;2023-07-13T12:51:25;12.80;;;4.93;;
39728;SDS011;25402;42.004;23.088;2023-07-13T12:53:56;27.83;;;5.15;;
39728;SDS011;25402;42.004;23.088;2023-07-13T12:56:37;16.30;;;5.05;;
39728;SDS011;25402;42.004;23.088;2023-07-13T12:59:04;10.35;;;4.25;;
39728;SDS011;25402;42.004;23.088;2023-07-13T13:01:34;11.02;;;4.63;;
39728;SDS011;25402;42.004;23.088;2023-07-13T13:04:03;15.43;;;4.65;;
39728;SDS011;25402;42.004;23.088;2023-07-13T13:06:33;8.70;;;4.32;;
39728;SDS011;25402;42.004;23.088;2023-07-13T13:09:02;20.00;;;4.55;;
39728;SDS011;25402;42.004;23.088;2023-07-13T13:11:31;11.43;;;4.40;;
39728;SDS011;25402;42.004;23.088;2023-07-13T13:13:59;14.52;;;4.30;;
39728;SDS011;25402;42.004;23.088;2023-07-13T13:16:29;8.43;;;4.70;;
39728;SDS011;25402;42.004;23.088;2023-07-13T13:18:59;28.25;;;5.20;;
39728;SDS011;25402;42.004;23.088;2023-07-13T13:21:30;11.70;;;4.60;;
39728;SDS011;25402;42.004;23.088;2023-07-13T13:24:00;18.15;;;4.78;;
39728;SDS011;25402;42.004;23.088;2023-07-13T13:26:27;13.90;;;4.85;;
39728;SDS011;25402;42.004;23.088;2023-07-13T13:28:56;9.52;;;4.65;;
39728;SDS011;25402;42.004;23.088;2023-07-13T13:31:23;19.65;;;4.60;;
39728;SDS011;25402;42.004;23.088;2023-07-13T13:33:50;21.02;;;4.85;;
39728;SDS011;25402;42.004;23.088;2023-07-13T13:36:18;12.90;;;4.38;;
39728;SDS011;25402;42.004;23.088;2023-07-13T13:38:46;10.18;;;4.82;;
39728;SDS011;25402;42.004;23.088;2023-07-13T13:41:15;9.38;;;4.47;;
39728;SDS011;25402;42.004;23.088;2023-07-13T13:43:43;11.20;;;4.30;;
39728;SDS011;25402;42.004;23.088;2023-07-13T13:46:14;13.52;;;5.00;;
39728;SDS011;25402;42.004;23.088;2023-07-13T13:48:43;12.98;;;4.70;;
39728;SDS011;25402;42.004;23.088;2023-07-13T13:51:15;11.43;;;4.88;;
39728;SDS011;25402;42.004;23.088;2023-07-13T13:53:44;12.90;;;4.95;;
39728;SDS011;25402;42.004;23.088;2023-07-13T13:56:12;28.35;;;5.47;;
39728;SDS011;25402;42.004;23.088;2023-07-13T13:58:41;12.95;;;4.78;;
39728;SDS011;25402;42.004;23.088;2023-07-13T14:01:11;11.10;;;4.20;;
39728;SDS011;25402;42.004;23.088;2023-07-13T14:03:39;20.75;;;4.68;;
39728;SDS011;25402;42.004;23.088;2023-07-13T14:06:07;22.02;;;5.45;;
39728;SDS011;25402;42.004;23.088;2023-07-13T14:08:39;22.90;;;5.18;;
39728;SDS011;25402;42.004;23.088;2023-07-13T14:11:07;23.20;;;6.18;;
39728;SDS011;25402;42.004;23.088;2023-07-13T14:13:38;20.75;;;5.55;;
39728;SDS011;25402;42.004;23.088;2023-07-13T14:16:11;16.30;;;5.38;;
39728;SDS011;25402;42.004;23.088;2023-07-13T14:18:39;11.82;;;5.05;;
39728;SDS011;25402;42.004;23.088;2023-07-13T14:21:11;15.20;;;5.18;;
39728;SDS011;25402;42.004;23.088;2023-07-13T14:23:39;90.85;;;9.43;;
39728;SDS011;25402;42.004;23.088;2023-07-13T14:26:13;27.98;;;5.85;;
39728;SDS011;25402;42.004;23.088;2023-07-13T14:28:44;25.55;;;5.90;;
39728;SDS011;25402;42.004;23.088;2023-07-13T14:31:13;14.63;;;3.97;;
39728;SDS011;25402;42.004;23.088;2023-07-13T14:33:42;8.80;;;3.90;;
39728;SDS011;25402;42.004;23.088;2023-07-13T14:36:15;10.63;;;4.10;;
39728;SDS011;25402;42.004;23.088;2023-07-13T14:38:49;20.38;;;4.13;;